sensor_id;sensor_type;location;lat;lon;timestamp;P1;durP1;ratioP1;P2;durP2;ratioP2
1987;SDS011;12775;46.994;15.498;2023-10-08T00:01:03;8.08;;;5.40;;
1987;SDS011;12775;46.994;15.498;2023-10-08T00:03:29;10.06;;;6.32;;
1987;SDS011;12775;46.994;15.498;2023-10-08T00:05:55;6.70;;;6.00;;
1987;SDS011;12775;46.994;15.498;2023-10-08T00:08:22;9.20;;;5.52;;
1987;SDS011;12775;46.994;15.498;2023-10-08T00:10:49;11.24;;;6.56;;
1987;SDS011;12775;46.994;15.498;2023-10-08T00:13:15;9.12;;;5.52;;
1987;SDS011;12775;46.994;15.498;2023-10-08T00:15:42;7.34;;;5.52;;
1987;SDS011;12775;46.994;15.498;2023-10-08T00:18:14;10.20;;;6.24;;
1987;SDS011;12775;46.994;15.498;2023-10-08T00:20:41;8.04;;;6.36;;
1987;SDS011;12775;46.994;15.498;2023-10-08T00:23:08;6.84;;;6.18;;
1987;SDS011;12775;46.994;15.498;2023-10-08T00:25:35;7.44;;;5.40;;
1987;SDS011;12775;46.994;15.498;2023-10-08T00:28:03;7.86;;;7.00;;
1987;SDS011;12775;46.994;15.498;2023-10-08T00:30:29;5.64;;;5.10;;
1987;SDS011;12775;46.994;15.498;2023-10-08T00:32:57;6.16;;;5.56;;
1987;SDS011;12775;46.994;15.498;2023-10-08T00:35:23;6.36;;;5.74;;
1987;SDS011;12775;46.994;15.498;2023-10-08T00:37:50;8.12;;;5.72;;
1987;SDS011;12775;46.994;15.498;2023-10-08T00:40:16;8.74;;;5.96;;
1987;SDS011;12775;46.994;15.498;2023-10-08T00:42:43;6.46;;;5.04;;
1987;SDS011;12775;46.994;15.498;2023-10-08T00:45:10;10.64;;;6.66;;
1987;SDS011;12775;46.994;15.498;2023-10-08T00:47:36;5.98;;;5.38;;
1987;SDS011;12775;46.994;15.498;2023-10-08T00:50:03;8.88;;;5.90;;
1987;SDS011;12775;46.994;15.498;2023-10-08T00:52:30;7.54;;;5.96;;
1987;SDS011;12775;46.994;15.498;2023-10-08T00:54:56;5.74;;;4.90;;
1987;SDS011;12775;46.994;15.498;2023-10-08T00:57:39;6.72;;;5.54;;
1987;SDS011;12775;46.994;15.498;2023-10-08T01:00:05;6.90;;;5.68;;
1987;SDS011;12775;46.994;15.498;2023-10-08T01:02:32;6.66;;;5.46;;
1987;SDS011;12775;46.994;15.498;2023-10-08T01:05:05;7.06;;;5.32;;
1987;SDS011;12775;46.994;15.498;2023-10-08T01:07:32;6.24;;;5.54;;
1987;SDS011;12775;46.994;15.498;2023-10-08T01:09:59;7.94;;;6.50;;
1987;SDS011;12775;46.994;15.498;2023-10-08T01:12:25;7.96;;;5.44;;
1987;SDS011;12775;46.994;15.498;2023-10-08T01:14:52;6.20;;;4.74;;
1987;SDS011;12775;46.994;15.498;2023-10-08T01:17:20;7.40;;;5.82;;
1987;SDS011;12775;46.994;15.498;2023-10-08T01:19:46;9.72;;;4.84;;
1987;SDS011;12775;46.994;15.498;2023-10-08T01:22:13;6.30;;;5.36;;
1987;SDS011;12775;46.994;15.498;2023-10-08T01:24:42;9.42;;;5.22;;
1987;SDS011;12775;46.994;15.498;2023-10-08T01:27:09;6.24;;;5.10;;
1987;SDS011;12775;46.994;15.498;2023-10-08T01:29:36;7.32;;;5.42;;
1987;SDS011;12775;46.994;15.498;2023-10-08T01:32:03;6.10;;;5.50;;
1987;SDS011;12775;46.994;15.498;2023-10-08T01:34:29;8.32;;;4.92;;
1987;SDS011;12775;46.994;15.498;2023-10-08T01:36:57;9.86;;;5.96;;
1987;SDS011;12775;46.994;15.498;2023-10-08T01:39:25;6.06;;;5.22;;
1987;SDS011;12775;46.994;15.498;2023-10-08T01:41:51;6.04;;;4.58;;
1987;SDS011;12775;46.994;15.498;2023-10-08T01:44:19;6.72;;;5.42;;
1987;SDS011;12775;46.994;15.498;2023-10-08T01:46:45;6.08;;;5.38;;
1987;SDS011;12775;46.994;15.498;2023-10-08T01:49:13;7.54;;;6.14;;
1987;SDS011;12775;46.994;15.498;2023-10-08T01:51:40;6.80;;;5.18;;
1987;SDS011;12775;46.994;15.498;2023-10-08T01:54:06;9.80;;;5.58;;
1987;SDS011;12775;46.994;15.498;2023-10-08T01:56:37;5.84;;;4.70;;
1987;SDS011;12775;46.994;15.498;2023-10-08T01:59:03;6.68;;;4.78;;
1987;SDS011;12775;46.994;15.498;2023-10-08T02:01:31;8.66;;;5.70;;
1987;SDS011;12775;46.994;15.498;2023-10-08T02:03:58;5.92;;;4.64;;
1987;SDS011;12775;46.994;15.498;2023-10-08T02:06:25;6.60;;;5.50;;
1987;SDS011;12775;46.994;15.498;2023-10-08T02:08:52;8.18;;;5.26;;
1987;SDS011;12775;46.994;15.498;2023-10-08T02:11:18;6.30;;;5.70;;
1987;SDS011;12775;46.994;15.498;2023-10-08T02:13:46;8.70;;;6.16;;
1987;SDS011;12775;46.994;15.498;2023-10-08T02:16:17;6.48;;;4.36;;
1987;SDS011;12775;46.994;15.498;2023-10-08T02:18:39;7.08;;;5.46;;
1987;SDS011;12775;46.994;15.498;2023-10-08T02:21:05;5.94;;;5.20;;
1987;SDS011;12775;46.994;15.498;2023-10-08T02:23:32;7.76;;;5.64;;
1987;SDS011;12775;46.994;15.498;2023-10-08T02:25:59;9.00;;;6.10;;
1987;SDS011;12775;46.994;15.498;2023-10-08T02:28:26;6.52;;;5.20;;
1987;SDS011;12775;46.994;15.498;2023-10-08T02:30:53;6.44;;;5.10;;
1987;SDS011;12775;46.994;15.498;2023-10-08T02:33:20;5.34;;;4.30;;
1987;SDS011;12775;46.994;15.498;2023-10-08T02:35:46;7.20;;;5.32;;
1987;SDS011;12775;46.994;15.498;2023-10-08T02:38:16;6.48;;;5.00;;
1987;SDS011;12775;46.994;15.498;2023-10-08T02:40:42;9.32;;;5.34;;
1987;SDS011;12775;46.994;15.498;2023-10-08T02:43:11;7.60;;;4.42;;
1987;SDS011;12775;46.994;15.498;2023-10-08T02:45:38;5.52;;;4.80;;
1987;SDS011;12775;46.994;15.498;2023-10-08T02:48:05;6.36;;;5.36;;
1987;SDS011;12775;46.994;15.498;2023-10-08T02:50:39;6.04;;;4.98;;
1987;SDS011;12775;46.994;15.498;2023-10-08T02:53:05;5.06;;;4.22;;
1987;SDS011;12775;46.994;15.498;2023-10-08T02:55:42;6.78;;;4.82;;
1987;SDS011;12775;46.994;15.498;2023-10-08T02:58:08;6.76;;;5.22;;
1987;SDS011;12775;46.994;15.498;2023-10-08T03:00:38;9.22;;;5.98;;
1987;SDS011;12775;46.994;15.498;2023-10-08T03:03:04;8.42;;;5.18;;
1987;SDS011;12775;46.994;15.498;2023-10-08T03:05:31;6.52;;;5.12;;
1987;SDS011;12775;46.994;15.498;2023-10-08T03:07:57;9.28;;;5.26;;
1987;SDS011;12775;46.994;15.498;2023-10-08T03:10:24;7.78;;;4.64;;
1987;SDS011;12775;46.994;15.498;2023-10-08T03:12:51;6.40;;;5.28;;
1987;SDS011;12775;46.994;15.498;2023-10-08T03:15:17;7.62;;;5.12;;
1987;SDS011;12775;46.994;15.498;2023-10-08T03:17:49;7.96;;;5.58;;
1987;SDS011;12775;46.994;15.498;2023-10-08T03:20:17;7.40;;;5.90;;
1987;SDS011;12775;46.994;15.498;2023-10-08T03:22:49;8.56;;;6.12;;
1987;SDS011;12775;46.994;15.498;2023-10-08T03:25:16;5.14;;;4.10;;
1987;SDS011;12775;46.994;15.498;2023-10-08T03:27:43;5.62;;;4.78;;
1987;SDS011;12775;46.994;15.498;2023-10-08T03:30:10;6.32;;;4.74;;
1987;SDS011;12775;46.994;15.498;2023-10-08T03:32:37;8.46;;;5.16;;
1987;SDS011;12775;46.994;15.498;2023-10-08T03:35:03;6.26;;;5.60;;
1987;SDS011;12775;46.994;15.498;2023-10-08T03:37:30;8.34;;;4.80;;
1987;SDS011;12775;46.994;15.498;2023-10-08T03:39:58;5.12;;;4.70;;
1987;SDS011;12775;46.994;15.498;2023-10-08T03:42:27;8.86;;;5.28;;
1987;SDS011;12775;46.994;15.498;2023-10-08T03:44:56;8.18;;;5.68;;
1987;SDS011;12775;46.994;15.498;2023-10-08T03:47:22;6.70;;;4.94;;
1987;SDS011;12775;46.994;15.498;2023-10-08T03:49:49;8.84;;;5.52;;
1987;SDS011;12775;46.994;15.498;2023-10-08T03:52:16;5.94;;;5.38;;
1987;SDS011;12775;46.994;15.498;2023-10-08T03:54:42;7.90;;;5.24;;
1987;SDS011;12775;46.994;15.498;2023-10-08T03:57:09;5.42;;;4.92;;
1987;SDS011;12775;46.994;15.498;2023-10-08T03:59:35;7.72;;;6.02;;
1987;SDS011;12775;46.994;15.498;2023-10-08T04:02:02;7.78;;;5.40;;
1987;SDS011;12775;46.994;15.498;2023-10-08T04:04:34;5.52;;;5.02;;
1987;SDS011;12775;46.994;15.498;2023-10-08T04:07:06;5.38;;;4.56;;
1987;SDS011;12775;46.994;15.498;2023-10-08T04:09:48;5.24;;;4.46;;
1987;SDS011;12775;46.994;15.498;2023-10-08T04:12:14;7.90;;;5.24;;
1987;SDS011;12775;46.994;15.498;2023-10-08T04:14:41;7.86;;;5.94;;
1987;SDS011;12775;46.994;15.498;2023-10-08T04:17:08;5.20;;;4.68;;
1987;SDS011;12775;46.994;15.498;2023-10-08T04:19:35;7.64;;;5.60;;
1987;SDS011;12775;46.994;15.498;2023-10-08T04:22:01;7.68;;;5.42;;
1987;SDS011;12775;46.994;15.498;2023-10-08T04:24:28;7.76;;;6.12;;
1987;SDS011;12775;46.994;15.498;2023-10-08T04:26:55;6.80;;;6.10;;
1987;SDS011;12775;46.994;15.498;2023-10-08T04:29:24;11.78;;;7.62;;
1987;SDS011;12775;46.994;15.498;2023-10-08T04:31:50;12.18;;;7.70;;
1987;SDS011;12775;46.994;15.498;2023-10-08T04:34:17;9.10;;;7.26;;
1987;SDS011;12775;46.994;15.498;2023-10-08T04:36:45;10.68;;;5.64;;
1987;SDS011;12775;46.994;15.498;2023-10-08T04:39:13;10.04;;;5.88;;
1987;SDS011;12775;46.994;15.498;2023-10-08T04:41:40;9.70;;;5.60;;
1987;SDS011;12775;46.994;15.498;2023-10-08T04:44:09;9.04;;;5.88;;
1987;SDS011;12775;46.994;15.498;2023-10-08T04:46:43;6.88;;;5.44;;
1987;SDS011;12775;46.994;15.498;2023-10-08T04:49:12;8.46;;;6.08;;
1987;SDS011;12775;46.994;15.498;2023-10-08T04:51:44;7.70;;;6.30;;
1987;SDS011;12775;46.994;15.498;2023-10-08T04:54:12;7.20;;;4.76;;
1987;SDS011;12775;46.994;15.498;2023-10-08T04:56:42;5.12;;;4.72;;
1987;SDS011;12775;46.994;15.498;2023-10-08T04:59:09;7.92;;;5.14;;
1987;SDS011;12775;46.994;15.498;2023-10-08T05:01:36;6.32;;;5.04;;
1987;SDS011;12775;46.994;15.498;2023-10-08T05:04:04;5.58;;;4.98;;
1987;SDS011;12775;46.994;15.498;2023-10-08T05:06:34;8.10;;;4.92;;
1987;SDS011;12775;46.994;15.498;2023-10-08T05:09:17;10.68;;;5.34;;
1987;SDS011;12775;46.994;15.498;2023-10-08T05:11:52;4.78;;;4.34;;
1987;SDS011;12775;46.994;15.498;2023-10-08T05:14:33;7.32;;;5.02;;
1987;SDS011;12775;46.994;15.498;2023-10-08T05:17:00;9.64;;;5.90;;
1987;SDS011;12775;46.994;15.498;2023-10-08T05:19:29;7.30;;;4.82;;
1987;SDS011;12775;46.994;15.498;2023-10-08T05:22:15;8.40;;;5.38;;
1987;SDS011;12775;46.994;15.498;2023-10-08T05:24:45;7.58;;;5.48;;
1987;SDS011;12775;46.994;15.498;2023-10-08T05:27:11;8.96;;;5.80;;
1987;SDS011;12775;46.994;15.498;2023-10-08T05:29:57;7.18;;;5.46;;
1987;SDS011;12775;46.994;15.498;2023-10-08T05:32:29;11.68;;;5.68;;
1987;SDS011;12775;46.994;15.498;2023-10-08T05:35:03;7.28;;;5.58;;
1987;SDS011;12775;46.994;15.498;2023-10-08T05:37:48;5.88;;;5.28;;
1987;SDS011;12775;46.994;15.498;2023-10-08T05:40:15;9.42;;;5.32;;
1987;SDS011;12775;46.994;15.498;2023-10-08T05:42:44;6.24;;;5.64;;
1987;SDS011;12775;46.994;15.498;2023-10-08T05:45:12;7.60;;;5.02;;
1987;SDS011;12775;46.994;15.498;2023-10-08T05:47:39;6.40;;;5.16;;
1987;SDS011;12775;46.994;15.498;2023-10-08T05:50:06;9.70;;;5.34;;
1987;SDS011;12775;46.994;15.498;2023-10-08T05:52:51;5.94;;;5.34;;
1987;SDS011;12775;46.994;15.498;2023-10-08T05:55:32;5.60;;;5.10;;
1987;SDS011;12775;46.994;15.498;2023-10-08T05:58:02;9.00;;;6.34;;
1987;SDS011;12775;46.994;15.498;2023-10-08T06:00:28;10.10;;;5.44;;
1987;SDS011;12775;46.994;15.498;2023-10-08T06:02:56;9.06;;;6.34;;
1987;SDS011;12775;46.994;15.498;2023-10-08T06:05:27;7.04;;;5.74;;
1987;SDS011;12775;46.994;15.498;2023-10-08T06:07:54;9.82;;;6.18;;
1987;SDS011;12775;46.994;15.498;2023-10-08T06:10:22;7.70;;;4.76;;
1987;SDS011;12775;46.994;15.498;2023-10-08T06:13:11;7.44;;;5.28;;
1987;SDS011;12775;46.994;15.498;2023-10-08T06:15:43;6.38;;;5.16;;
1987;SDS011;12775;46.994;15.498;2023-10-08T06:18:19;8.84;;;5.44;;
1987;SDS011;12775;46.994;15.498;2023-10-08T06:20:45;5.58;;;4.88;;
1987;SDS011;12775;46.994;15.498;2023-10-08T06:23:12;8.70;;;5.14;;
1987;SDS011;12775;46.994;15.498;2023-10-08T06:25:38;9.84;;;4.86;;
1987;SDS011;12775;46.994;15.498;2023-10-08T06:28:16;8.58;;;5.62;;
1987;SDS011;12775;46.994;15.498;2023-10-08T06:30:41;6.42;;;5.52;;
1987;SDS011;12775;46.994;15.498;2023-10-08T06:33:09;7.04;;;5.92;;
1987;SDS011;12775;46.994;15.498;2023-10-08T06:35:35;6.56;;;5.28;;
1987;SDS011;12775;46.994;15.498;2023-10-08T06:38:02;7.64;;;5.48;;
1987;SDS011;12775;46.994;15.498;2023-10-08T06:40:30;6.78;;;6.12;;
1987;SDS011;12775;46.994;15.498;2023-10-08T06:43:09;9.96;;;6.68;;
1987;SDS011;12775;46.994;15.498;2023-10-08T06:45:40;6.54;;;5.86;;
1987;SDS011;12775;46.994;15.498;2023-10-08T06:48:07;6.94;;;6.24;;
1987;SDS011;12775;46.994;15.498;2023-10-08T06:50:34;7.84;;;5.64;;
1987;SDS011;12775;46.994;15.498;2023-10-08T06:53:02;7.90;;;5.60;;
1987;SDS011;12775;46.994;15.498;2023-10-08T06:55:28;7.54;;;5.52;;
1987;SDS011;12775;46.994;15.498;2023-10-08T06:57:54;7.54;;;6.00;;
1987;SDS011;12775;46.994;15.498;2023-10-08T07:00:22;8.92;;;6.40;;
1987;SDS011;12775;46.994;15.498;2023-10-08T07:02:49;6.50;;;5.14;;
1987;SDS011;12775;46.994;15.498;2023-10-08T07:05:15;8.48;;;5.72;;
1987;SDS011;12775;46.994;15.498;2023-10-08T07:07:42;8.38;;;5.58;;
1987;SDS011;12775;46.994;15.498;2023-10-08T07:10:08;11.72;;;5.60;;
1987;SDS011;12775;46.994;15.498;2023-10-08T07:12:35;11.98;;;5.86;;
1987;SDS011;12775;46.994;15.498;2023-10-08T07:15:02;9.92;;;6.72;;
1987;SDS011;12775;46.994;15.498;2023-10-08T07:17:30;8.12;;;5.88;;
1987;SDS011;12775;46.994;15.498;2023-10-08T07:19:57;9.14;;;5.84;;
1987;SDS011;12775;46.994;15.498;2023-10-08T07:22:23;6.60;;;5.42;;
1987;SDS011;12775;46.994;15.498;2023-10-08T07:24:50;5.82;;;5.18;;
1987;SDS011;12775;46.994;15.498;2023-10-08T07:27:17;8.34;;;5.72;;
1987;SDS011;12775;46.994;15.498;2023-10-08T07:29:44;13.32;;;5.64;;
1987;SDS011;12775;46.994;15.498;2023-10-08T07:32:10;11.18;;;5.92;;
1987;SDS011;12775;46.994;15.498;2023-10-08T07:34:38;10.88;;;6.28;;
1987;SDS011;12775;46.994;15.498;2023-10-08T07:37:05;13.42;;;7.66;;
1987;SDS011;12775;46.994;15.498;2023-10-08T07:39:32;14.56;;;5.40;;
1987;SDS011;12775;46.994;15.498;2023-10-08T07:42:00;13.02;;;7.26;;
1987;SDS011;12775;46.994;15.498;2023-10-08T07:44:27;10.90;;;6.58;;
1987;SDS011;12775;46.994;15.498;2023-10-08T07:46:55;9.44;;;5.60;;
1987;SDS011;12775;46.994;15.498;2023-10-08T07:49:22;12.24;;;7.08;;
1987;SDS011;12775;46.994;15.498;2023-10-08T07:51:51;11.64;;;6.24;;
1987;SDS011;12775;46.994;15.498;2023-10-08T07:54:18;9.18;;;6.10;;
1987;SDS011;12775;46.994;15.498;2023-10-08T07:56:45;15.08;;;6.42;;
1987;SDS011;12775;46.994;15.498;2023-10-08T07:59:11;10.06;;;5.98;;
1987;SDS011;12775;46.994;15.498;2023-10-08T08:01:37;10.50;;;7.48;;
1987;SDS011;12775;46.994;15.498;2023-10-08T08:04:04;7.72;;;5.56;;
1987;SDS011;12775;46.994;15.498;2023-10-08T08:06:31;7.20;;;5.88;;
1987;SDS011;12775;46.994;15.498;2023-10-08T08:08:59;7.38;;;5.32;;
1987;SDS011;12775;46.994;15.498;2023-10-08T08:11:25;10.16;;;6.16;;
1987;SDS011;12775;46.994;15.498;2023-10-08T08:13:52;7.38;;;5.08;;
1987;SDS011;12775;46.994;15.498;2023-10-08T08:16:19;7.76;;;4.96;;
1987;SDS011;12775;46.994;15.498;2023-10-08T08:18:47;5.98;;;4.92;;
1987;SDS011;12775;46.994;15.498;2023-10-08T08:21:16;13.90;;;6.92;;
1987;SDS011;12775;46.994;15.498;2023-10-08T08:23:43;9.64;;;5.56;;
1987;SDS011;12775;46.994;15.498;2023-10-08T08:26:17;11.64;;;4.66;;
1987;SDS011;12775;46.994;15.498;2023-10-08T08:28:49;8.10;;;5.42;;
1987;SDS011;12775;46.994;15.498;2023-10-08T08:31:15;6.66;;;4.70;;
1987;SDS011;12775;46.994;15.498;2023-10-08T08:33:42;9.48;;;6.04;;
1987;SDS011;12775;46.994;15.498;2023-10-08T08:36:14;11.02;;;5.88;;
1987;SDS011;12775;46.994;15.498;2023-10-08T08:38:41;9.90;;;6.08;;
1987;SDS011;12775;46.994;15.498;2023-10-08T08:41:08;7.82;;;5.10;;
1987;SDS011;12775;46.994;15.498;2023-10-08T08:43:34;9.18;;;5.64;;
1987;SDS011;12775;46.994;15.498;2023-10-08T08:46:02;9.40;;;5.64;;
1987;SDS011;12775;46.994;15.498;2023-10-08T08:48:29;12.68;;;4.44;;
1987;SDS011;12775;46.994;15.498;2023-10-08T08:50:55;12.32;;;5.58;;
1987;SDS011;12775;46.994;15.498;2023-10-08T08:53:22;13.80;;;6.22;;
1987;SDS011;12775;46.994;15.498;2023-10-08T08:55:49;20.42;;;10.80;;
1987;SDS011;12775;46.994;15.498;2023-10-08T08:58:15;9.82;;;6.70;;
1987;SDS011;12775;46.994;15.498;2023-10-08T09:00:43;13.44;;;9.10;;
1987;SDS011;12775;46.994;15.498;2023-10-08T09:03:09;15.64;;;10.64;;
1987;SDS011;12775;46.994;15.498;2023-10-08T09:05:36;23.46;;;6.96;;
1987;SDS011;12775;46.994;15.498;2023-10-08T09:08:03;9.98;;;4.94;;
1987;SDS011;12775;46.994;15.498;2023-10-08T09:10:30;12.38;;;5.38;;
1987;SDS011;12775;46.994;15.498;2023-10-08T09:12:57;8.90;;;6.50;;
1987;SDS011;12775;46.994;15.498;2023-10-08T09:15:26;11.04;;;6.72;;
1987;SDS011;12775;46.994;15.498;2023-10-08T09:17:52;10.50;;;6.68;;
1987;SDS011;12775;46.994;15.498;2023-10-08T09:20:18;10.38;;;6.82;;
1987;SDS011;12775;46.994;15.498;2023-10-08T09:23:18;8.60;;;6.10;;
1987;SDS011;12775;46.994;15.498;2023-10-08T09:25:33;7.34;;;5.42;;
1987;SDS011;12775;46.994;15.498;2023-10-08T09:28:00;15.54;;;6.18;;
1987;SDS011;12775;46.994;15.498;2023-10-08T09:30:28;9.76;;;5.20;;
1987;SDS011;12775;46.994;15.498;2023-10-08T09:32:55;15.26;;;11.90;;
1987;SDS011;12775;46.994;15.498;2023-10-08T09:35:22;12.22;;;7.42;;
1987;SDS011;12775;46.994;15.498;2023-10-08T09:37:48;9.58;;;7.78;;
1987;SDS011;12775;46.994;15.498;2023-10-08T09:40:16;9.94;;;7.86;;
1987;SDS011;12775;46.994;15.498;2023-10-08T09:42:42;10.70;;;7.98;;
1987;SDS011;12775;46.994;15.498;2023-10-08T09:45:09;9.50;;;8.18;;
1987;SDS011;12775;46.994;15.498;2023-10-08T09:47:36;10.46;;;7.06;;
1987;SDS011;12775;46.994;15.498;2023-10-08T09:50:03;10.94;;;7.78;;
1987;SDS011;12775;46.994;15.498;2023-10-08T09:52:32;9.44;;;8.28;;
1987;SDS011;12775;46.994;15.498;2023-10-08T09:54:59;14.68;;;8.48;;
1987;SDS011;12775;46.994;15.498;2023-10-08T09:57:22;19.82;;;10.88;;
1987;SDS011;12775;46.994;15.498;2023-10-08T09:59:49;12.20;;;9.68;;
1987;SDS011;12775;46.994;15.498;2023-10-08T10:02:16;11.48;;;8.14;;
1987;SDS011;12775;46.994;15.498;2023-10-08T10:04:43;10.60;;;7.72;;
1987;SDS011;12775;46.994;15.498;2023-10-08T10:07:14;16.06;;;7.98;;
1987;SDS011;12775;46.994;15.498;2023-10-08T10:09:42;16.14;;;9.36;;
1987;SDS011;12775;46.994;15.498;2023-10-08T10:12:09;10.60;;;8.32;;
1987;SDS011;12775;46.994;15.498;2023-10-08T10:14:41;10.74;;;7.50;;
1987;SDS011;12775;46.994;15.498;2023-10-08T10:17:12;12.72;;;8.54;;
1987;SDS011;12775;46.994;15.498;2023-10-08T10:19:39;11.54;;;7.70;;
1987;SDS011;12775;46.994;15.498;2023-10-08T10:22:09;11.44;;;8.28;;
1987;SDS011;12775;46.994;15.498;2023-10-08T10:24:33;12.78;;;7.50;;
1987;SDS011;12775;46.994;15.498;2023-10-08T10:29:42;9.94;;;7.28;;
1987;SDS011;12775;46.994;15.498;2023-10-08T10:32:11;11.02;;;7.42;;
1987;SDS011;12775;46.994;15.498;2023-10-08T10:34:38;12.02;;;8.44;;
1987;SDS011;12775;46.994;15.498;2023-10-08T10:37:04;12.18;;;7.88;;
1987;SDS011;12775;46.994;15.498;2023-10-08T10:39:34;10.92;;;7.90;;
1987;SDS011;12775;46.994;15.498;2023-10-08T10:42:02;15.92;;;9.34;;
1987;SDS011;12775;46.994;15.498;2023-10-08T10:44:29;11.22;;;7.68;;
1987;SDS011;12775;46.994;15.498;2023-10-08T10:46:56;9.62;;;8.46;;
1987;SDS011;12775;46.994;15.498;2023-10-08T10:49:28;13.10;;;9.80;;
1987;SDS011;12775;46.994;15.498;2023-10-08T10:51:57;12.44;;;8.16;;
1987;SDS011;12775;46.994;15.498;2023-10-08T10:54:24;11.84;;;8.00;;
1987;SDS011;12775;46.994;15.498;2023-10-08T10:56:51;13.64;;;7.06;;
1987;SDS011;12775;46.994;15.498;2023-10-08T10:59:29;12.00;;;7.50;;
1987;SDS011;12775;46.994;15.498;2023-10-08T11:01:56;14.16;;;7.16;;
1987;SDS011;12775;46.994;15.498;2023-10-08T11:04:37;9.40;;;7.20;;
1987;SDS011;12775;46.994;15.498;2023-10-08T11:07:10;8.98;;;6.92;;
1987;SDS011;12775;46.994;15.498;2023-10-08T11:09:36;13.02;;;9.26;;
1987;SDS011;12775;46.994;15.498;2023-10-08T11:12:03;8.54;;;6.50;;
1987;SDS011;12775;46.994;15.498;2023-10-08T11:14:30;16.46;;;7.40;;
1987;SDS011;12775;46.994;15.498;2023-10-08T11:16:56;14.28;;;7.78;;
1987;SDS011;12775;46.994;15.498;2023-10-08T11:19:24;14.82;;;7.16;;
1987;SDS011;12775;46.994;15.498;2023-10-08T11:21:51;11.42;;;7.14;;
1987;SDS011;12775;46.994;15.498;2023-10-08T11:27:00;9.64;;;5.14;;
1987;SDS011;12775;46.994;15.498;2023-10-08T11:29:28;15.16;;;6.62;;
1987;SDS011;12775;46.994;15.498;2023-10-08T11:31:55;10.24;;;6.54;;
1987;SDS011;12775;46.994;15.498;2023-10-08T11:34:22;14.52;;;6.90;;
1987;SDS011;12775;46.994;15.498;2023-10-08T11:36:52;13.84;;;7.36;;
1987;SDS011;12775;46.994;15.498;2023-10-08T11:39:16;8.58;;;6.32;;
1987;SDS011;12775;46.994;15.498;2023-10-08T11:44:30;9.84;;;6.82;;
1987;SDS011;12775;46.994;15.498;2023-10-08T11:46:56;18.50;;;8.04;;
1987;SDS011;12775;46.994;15.498;2023-10-08T11:49:22;8.96;;;5.88;;
1987;SDS011;12775;46.994;15.498;2023-10-08T11:51:50;12.74;;;6.32;;
1987;SDS011;12775;46.994;15.498;2023-10-08T11:54:16;12.54;;;6.30;;
1987;SDS011;12775;46.994;15.498;2023-10-08T11:56:43;11.66;;;5.28;;
1987;SDS011;12775;46.994;15.498;2023-10-08T11:59:10;16.18;;;5.54;;
1987;SDS011;12775;46.994;15.498;2023-10-08T12:01:37;10.78;;;5.80;;
1987;SDS011;12775;46.994;15.498;2023-10-08T12:04:03;10.70;;;5.64;;
1987;SDS011;12775;46.994;15.498;2023-10-08T12:06:30;10.74;;;5.08;;
1987;SDS011;12775;46.994;15.498;2023-10-08T12:08:57;13.34;;;4.90;;
1987;SDS011;12775;46.994;15.498;2023-10-08T12:11:25;10.00;;;4.78;;
1987;SDS011;12775;46.994;15.498;2023-10-08T12:13:57;12.80;;;5.18;;
1987;SDS011;12775;46.994;15.498;2023-10-08T12:16:24;13.96;;;4.88;;
1987;SDS011;12775;46.994;15.498;2023-10-08T12:18:51;7.54;;;4.00;;
1987;SDS011;12775;46.994;15.498;2023-10-08T12:21:19;14.52;;;4.88;;
1987;SDS011;12775;46.994;15.498;2023-10-08T12:23:46;9.60;;;3.96;;
1987;SDS011;12775;46.994;15.498;2023-10-08T12:26:12;18.46;;;4.60;;
1987;SDS011;12775;46.994;15.498;2023-10-08T12:28:42;10.74;;;5.64;;
1987;SDS011;12775;46.994;15.498;2023-10-08T12:31:08;10.94;;;4.30;;
1987;SDS011;12775;46.994;15.498;2023-10-08T12:33:34;11.66;;;5.08;;
1987;SDS011;12775;46.994;15.498;2023-10-08T12:36:01;9.92;;;4.38;;
1987;SDS011;12775;46.994;15.498;2023-10-08T12:38:28;19.54;;;6.02;;
1987;SDS011;12775;46.994;15.498;2023-10-08T12:40:56;9.68;;;4.70;;
1987;SDS011;12775;46.994;15.498;2023-10-08T12:43:23;7.74;;;5.24;;
1987;SDS011;12775;46.994;15.498;2023-10-08T12:45:49;6.56;;;4.40;;
1987;SDS011;12775;46.994;15.498;2023-10-08T12:48:21;12.76;;;4.62;;
1987;SDS011;12775;46.994;15.498;2023-10-08T12:50:47;12.30;;;4.58;;
1987;SDS011;12775;46.994;15.498;2023-10-08T12:53:28;9.88;;;5.50;;
1987;SDS011;12775;46.994;15.498;2023-10-08T12:56:00;11.46;;;5.32;;
1987;SDS011;12775;46.994;15.498;2023-10-08T12:58:27;17.04;;;6.36;;
1987;SDS011;12775;46.994;15.498;2023-10-08T13:00:55;11.68;;;4.12;;
1987;SDS011;12775;46.994;15.498;2023-10-08T13:03:24;12.48;;;5.26;;
1987;SDS011;12775;46.994;15.498;2023-10-08T13:05:51;11.90;;;4.60;;
1987;SDS011;12775;46.994;15.498;2023-10-08T13:08:19;14.72;;;5.02;;
1987;SDS011;12775;46.994;15.498;2023-10-08T13:10:46;11.28;;;5.22;;
1987;SDS011;12775;46.994;15.498;2023-10-08T13:13:13;12.78;;;5.24;;
1987;SDS011;12775;46.994;15.498;2023-10-08T13:15:39;15.32;;;5.66;;
1987;SDS011;12775;46.994;15.498;2023-10-08T13:18:06;13.02;;;5.40;;
1987;SDS011;12775;46.994;15.498;2023-10-08T13:20:32;8.76;;;4.08;;
1987;SDS011;12775;46.994;15.498;2023-10-08T13:23:00;13.20;;;5.32;;
1987;SDS011;12775;46.994;15.498;2023-10-08T13:25:27;12.24;;;4.80;;
1987;SDS011;12775;46.994;15.498;2023-10-08T13:27:54;15.50;;;5.04;;
1987;SDS011;12775;46.994;15.498;2023-10-08T13:30:22;10.42;;;4.74;;
1987;SDS011;12775;46.994;15.498;2023-10-08T13:32:48;12.34;;;5.76;;
1987;SDS011;12775;46.994;15.498;2023-10-08T13:35:16;15.44;;;5.20;;
1987;SDS011;12775;46.994;15.498;2023-10-08T13:37:42;9.82;;;4.40;;
1987;SDS011;12775;46.994;15.498;2023-10-08T13:40:09;8.50;;;4.20;;
1987;SDS011;12775;46.994;15.498;2023-10-08T13:42:36;12.78;;;5.24;;
1987;SDS011;12775;46.994;15.498;2023-10-08T13:45:02;10.16;;;4.66;;
1987;SDS011;12775;46.994;15.498;2023-10-08T13:47:29;6.96;;;4.66;;
1987;SDS011;12775;46.994;15.498;2023-10-08T13:49:57;11.34;;;3.94;;
1987;SDS011;12775;46.994;15.498;2023-10-08T13:52:24;13.78;;;5.26;;
1987;SDS011;12775;46.994;15.498;2023-10-08T13:54:51;8.46;;;4.58;;
1987;SDS011;12775;46.994;15.498;2023-10-08T13:57:19;10.16;;;4.94;;
1987;SDS011;12775;46.994;15.498;2023-10-08T13:59:46;8.80;;;5.32;;
1987;SDS011;12775;46.994;15.498;2023-10-08T14:02:12;11.34;;;5.64;;
1987;SDS011;12775;46.994;15.498;2023-10-08T14:04:41;7.84;;;4.14;;
1987;SDS011;12775;46.994;15.498;2023-10-08T14:07:08;15.54;;;5.20;;
1987;SDS011;12775;46.994;15.498;2023-10-08T14:09:34;12.08;;;7.44;;
1987;SDS011;12775;46.994;15.498;2023-10-08T14:12:03;20.04;;;7.80;;
1987;SDS011;12775;46.994;15.498;2023-10-08T14:14:30;12.18;;;6.38;;
1987;SDS011;12775;46.994;15.498;2023-10-08T14:16:58;10.52;;;5.62;;
1987;SDS011;12775;46.994;15.498;2023-10-08T14:19:26;11.10;;;5.66;;
1987;SDS011;12775;46.994;15.498;2023-10-08T14:21:55;9.54;;;5.50;;
1987;SDS011;12775;46.994;15.498;2023-10-08T14:24:21;17.28;;;5.70;;
1987;SDS011;12775;46.994;15.498;2023-10-08T14:26:48;11.36;;;5.74;;
1987;SDS011;12775;46.994;15.498;2023-10-08T14:29:15;8.38;;;4.10;;
1987;SDS011;12775;46.994;15.498;2023-10-08T14:31:41;11.64;;;4.58;;
1987;SDS011;12775;46.994;15.498;2023-10-08T14:34:08;12.64;;;4.64;;
1987;SDS011;12775;46.994;15.498;2023-10-08T14:36:41;9.68;;;5.10;;
1987;SDS011;12775;46.994;15.498;2023-10-08T14:39:13;12.04;;;3.60;;
1987;SDS011;12775;46.994;15.498;2023-10-08T14:41:45;7.68;;;2.90;;
1987;SDS011;12775;46.994;15.498;2023-10-08T14:44:17;4.44;;;2.22;;
1987;SDS011;12775;46.994;15.498;2023-10-08T14:46:44;5.04;;;1.88;;
1987;SDS011;12775;46.994;15.498;2023-10-08T14:49:10;4.76;;;2.14;;
1987;SDS011;12775;46.994;15.498;2023-10-08T14:51:37;8.12;;;1.82;;
1987;SDS011;12775;46.994;15.498;2023-10-08T14:54:04;5.68;;;1.98;;
1987;SDS011;12775;46.994;15.498;2023-10-08T14:56:30;2.28;;;1.36;;